INFORMACIÓN METAR y TAF
METAR FOR LETL
ADDS - METARS form results

(1216 UTC 17 February 2019)
Data provider http://aviationweather.gov/metar/data/
 
METAR text: LETL 171200Z AUTO 14010KT 110V170 9999 NCD 12/M10 Q1025
Conditions at: LETL (TERUEL , ES) observed 1200 UTC 17 February 2019
Temperature: 12.0°C (54°F)
Dewpoint: -10.0°C (14°F) [RH = 20%]
Pressure (altimeter): 30.27 inches Hg (1025.0 mb)
Winds: from the SE (140 degrees) at 12 MPH (10 knots; 5.1 m/s)
Visibility: 6 or more miles (10+ km)
Ceiling: at least 12,000 feet AGL
Clouds: sky clear below 12,000 feet AGL
Weather: no significant weather observed at this time

METAR text: LETL 171130Z AUTO 13009KT 100V160 9999 NCD 11/M10 Q1025
Conditions at: LETL (TERUEL , ES) observed 1130 UTC 17 February 2019
Temperature: 11.0°C (52°F)
Dewpoint: -10.0°C (14°F) [RH = 22%]
Pressure (altimeter): 30.27 inches Hg (1025.0 mb)
Winds: from the SE (130 degrees) at 10 MPH (9 knots; 4.6 m/s)
Visibility: 6 or more miles (10+ km)
Ceiling: at least 12,000 feet AGL
Clouds: sky clear below 12,000 feet AGL
Weather: no significant weather observed at this time

 MAPA DE AEROPUERTO

 INFORMACIÓN DE PISTA

 FRECUANCIAS DEL AEROPUERTO

 RADIO AYUDAS DEL AEROPUERTO



Powered by Virtual Airlines Manager [v2.6.2]